Time;durP1;ratioP1;P1;durP2;ratioP2;P2;SDS_P1;SDS_P2;PMS_P1;PMS_P2;Temp;Humidity;BMP_temperature;BMP_pressure;BME280_temperature;BME280_humidity;BME280_pressure;Samples;Min_cycle;Max_cycle;Signal;HPM_P1;HPM_P2
2022/06/13 00:01:01;;;;;;;9.77;4.30;;;;;;;-145.18;100.00;46648.69;4991110;28;20052;-85
2022/06/13 00:03:27;;;;;;;10.43;4.30;;;;;;;-145.18;100.00;46650.63;4990979;28;20082;-85
2022/06/13 00:05:52;;;;;;;9.37;4.63;;;;;;;-145.18;100.00;46652.59;4990787;28;20417;-86
2022/06/13 00:08:18;;;;;;;12.40;4.57;;;;;;;-145.18;100.00;46650.63;4994983;28;20034;-84
2022/06/13 00:10:43;;;;;;;12.40;4.40;;;;;;;-145.18;100.00;46650.63;4994542;28;20038;-85
2022/06/13 00:13:09;;;;;;;12.63;4.53;;;;;;;-145.18;100.00;46644.78;4994796;28;20035;-85
2022/06/13 00:15:34;;;;;;;11.77;5.43;;;;;;;-145.18;100.00;46648.69;4994821;28;20388;-86
2022/06/13 00:18:00;;;;;;;14.37;5.00;;;;;;;-145.18;100.00;46646.72;4994491;28;20038;-86
2022/06/13 00:20:25;;;;;;;12.33;5.17;;;;;;;-145.18;100.00;46646.72;4995054;28;20034;-84
2022/06/13 00:22:51;;;;;;;16.47;5.30;;;;;;;-145.18;100.00;46654.53;4994451;28;20535;-85
2022/06/13 00:25:16;;;;;;;10.97;5.40;;;;;;;-145.18;100.00;46648.69;4994543;28;20403;-85
2022/06/13 00:27:42;;;;;;;14.70;4.80;;;;;;;-145.18;100.00;46650.63;4994486;28;20034;-85
2022/06/13 00:30:09;;;;;;;12.63;5.30;;;;;;;-145.18;100.00;46650.63;4994807;28;20034;-87
2022/06/13 00:32:34;;;;;;;15.17;5.97;;;;;;;-145.18;100.00;46654.53;4993985;28;20494;-88
2022/06/13 00:35:00;;;;;;;17.00;5.13;;;;;;;-145.18;100.00;46654.53;4994823;28;20088;-85
2022/06/13 00:37:25;;;;;;;11.77;4.97;;;;;;;-145.18;100.00;46654.53;4994211;28;20035;-86
2022/06/13 00:39:50;;;;;;;14.63;5.40;;;;;;;-145.18;100.00;46658.44;4994689;28;20065;-86
2022/06/13 00:42:19;;;;;;;16.63;5.50;;;;;;;-145.18;100.00;46656.50;4994140;28;20394;-86
2022/06/13 00:45:08;;;;;;;19.37;6.07;;;;;;;-145.18;100.00;46656.50;4993939;28;20058;-85
2022/06/13 00:47:35;;;;;;;15.30;5.23;;;;;;;-145.18;100.00;46654.53;4993816;28;20037;-86
2022/06/13 00:50:05;;;;;;;16.63;5.97;;;;;;;-145.18;100.00;46658.44;4977258;28;20040;-86
2022/06/13 00:52:39;;;;;;;16.40;5.70;;;;;;;-145.18;100.00;46656.50;4993670;28;20045;-86
2022/06/13 00:55:08;;;;;;;15.47;6.00;;;;;;;-145.18;100.00;46656.50;4994124;28;20042;-87
2022/06/13 00:57:33;;;;;;;12.87;5.60;;;;;;;-145.18;100.00;46654.53;4993672;28;20040;-86
2022/06/13 01:00:05;;;;;;;14.83;5.37;;;;;;;-145.18;100.00;46654.53;4994619;28;20031;-86
2022/06/13 01:02:31;;;;;;;11.13;5.20;;;;;;;-145.18;100.00;46654.53;5000179;23;20062;-86
2022/06/13 01:04:58;;;;;;;15.57;5.07;;;;;;;-145.18;100.00;46652.59;4994190;28;20034;-86
2022/06/13 01:07:24;;;;;;;16.87;5.77;;;;;;;-145.18;100.00;46654.53;4993455;28;20041;-86
2022/06/13 01:12:36;;;;;;;12.93;5.00;;;;;;;-145.18;100.00;46646.72;4993295;28;20036;-84
2022/06/13 01:15:23;;;;;;;14.20;5.10;;;;;;;-145.18;100.00;46646.72;4993819;28;20431;-85
2022/06/13 01:18:06;;;;;;;14.27;5.77;;;;;;;-145.18;100.00;46648.69;4997366;28;20080;-84
2022/06/13 01:20:59;;;;;;;16.50;5.27;;;;;;;-145.18;100.00;46652.59;5013516;28;20652;-84
2022/06/13 01:24:12;;;;;;;13.30;4.63;;;;;;;-145.18;100.00;46648.69;5012554;28;20034;-86
2022/06/13 01:26:57;;;;;;;18.00;5.27;;;;;;;-145.18;100.00;46642.81;5013017;28;20038;-86
2022/06/13 01:29:33;;;;;;;23.53;5.83;;;;;;;-145.18;100.00;46642.81;5013255;28;20109;-87
2022/06/13 01:32:40;;;;;;;16.88;5.60;;;;;;;-145.18;100.00;46679.94;5013076;28;20092;-86
2022/06/13 01:35:44;;;;;;;19.63;5.97;;;;;;;-145.18;100.00;46644.78;5012473;28;20100;-85
2022/06/13 01:38:33;;;;;;;16.33;6.03;;;;;;;-145.18;100.00;46642.81;5012721;28;20022;-86
2022/06/13 01:41:27;;;;;;;12.07;4.77;;;;;;;-145.18;100.00;46640.88;5012983;28;20083;-86
2022/06/13 01:44:15;;;;;;;18.27;6.07;;;;;;;-145.18;100.00;46640.88;5012818;28;20109;-84
2022/06/13 01:46:56;;;;;;;20.03;5.60;;;;;;;-145.18;100.00;46660.41;5013114;28;20083;-85
2022/06/13 01:49:33;;;;;;;16.37;5.50;;;;;;;-145.18;100.00;46677.97;5012510;28;20057;-86
2022/06/13 01:52:19;;;;;;;14.97;5.80;;;;;;;-145.18;100.00;46660.41;5012793;28;20382;-85
2022/06/13 01:54:53;;;;;;;22.95;6.55;;;;;;;-145.18;100.00;46660.41;5012906;28;20164;-85
2022/06/13 01:57:33;;;;;;;20.17;6.30;;;;;;;-145.18;100.00;46660.41;5012248;28;20025;-86
2022/06/13 02:00:11;;;;;;;21.57;6.27;;;;;;;-145.18;100.00;46660.41;5012773;28;20026;-86
2022/06/13 02:02:56;;;;;;;17.90;6.07;;;;;;;-145.18;100.00;46660.41;5090890;23;20058;-83
2022/06/13 02:05:31;;;;;;;20.20;6.13;;;;;;;-145.18;100.00;46660.41;4969313;28;20125;-84
2022/06/13 02:08:03;;;;;;;13.37;5.53;;;;;;;-145.18;100.00;46660.41;4971006;28;20051;-85
2022/06/13 02:10:33;;;;;;;18.93;6.37;;;;;;;-145.18;100.00;46660.41;4973103;28;20031;-85
2022/06/13 02:13:10;;;;;;;19.07;6.20;;;;;;;-145.18;100.00;46660.41;4972873;28;20069;-85
2022/06/13 02:15:41;;;;;;;22.97;5.67;;;;;;;-145.18;100.00;46660.41;4973311;28;20100;-86
2022/06/13 02:18:15;;;;;;;18.63;6.47;;;;;;;-145.18;100.00;46660.41;4973074;28;20039;-85
2022/06/13 02:20:47;;;;;;;16.93;5.40;;;;;;;-145.18;100.00;46660.41;4973536;28;20037;-84
2022/06/13 02:23:18;;;;;;;26.87;6.40;;;;;;;-145.18;100.00;46660.41;4973144;28;20462;-86
2022/06/13 02:25:53;;;;;;;28.07;6.00;;;;;;;-145.18;100.00;46660.41;4972862;28;20030;-85
2022/06/13 02:28:49;;;;;;;23.35;6.10;;;;;;;-145.18;100.00;46660.41;4973106;28;20062;-86
2022/06/13 02:31:21;;;;;;;19.38;5.95;;;;;;;-145.18;100.00;46660.41;4940337;28;20059;-86
2022/06/13 02:33:58;;;;;;;19.97;5.50;;;;;;;-145.18;100.00;46660.41;4972605;28;20038;-85
2022/06/13 02:36:35;;;;;;;15.63;5.50;;;;;;;-145.18;100.00;46660.41;4972653;28;20034;-85
2022/06/13 02:39:07;;;;;;;24.67;5.70;;;;;;;-145.18;100.00;46658.44;4972574;28;20023;-84
2022/06/13 02:42:05;;;;;;;22.93;5.87;;;;;;;-145.18;100.00;46660.41;4973095;28;20027;-85
2022/06/13 02:44:37;;;;;;;21.23;6.63;;;;;;;-145.18;100.00;46660.41;4972985;28;20062;-85
2022/06/13 02:47:09;;;;;;;25.73;6.00;;;;;;;-145.18;100.00;46660.41;4972338;28;20037;-85
2022/06/13 02:49:40;;;;;;;21.17;5.80;;;;;;;-145.18;100.00;46660.41;4972845;28;20030;-85
2022/06/13 02:52:15;;;;;;;22.83;6.27;;;;;;;-145.18;100.00;46660.41;4972253;28;20045;-85
2022/06/13 02:54:55;;;;;;;22.88;6.32;;;;;;;-145.18;100.00;46660.41;4972737;28;20042;-85
2022/06/13 02:57:45;;;;;;;22.27;6.30;;;;;;;-145.18;100.00;46660.41;4972186;28;20398;-85
2022/06/13 03:00:28;;;;;;;17.67;5.83;;;;;;;-145.18;100.00;46658.44;4970254;28;20146;-86
2022/06/13 03:03:12;;;;;;;20.50;6.10;;;;;;;-145.18;100.00;46658.44;4963647;28;20051;-86
2022/06/13 03:05:44;;;;;;;27.87;6.57;;;;;;;-145.18;100.00;46658.44;4953140;29;20050;-85
2022/06/13 03:08:35;;;;;;;19.10;6.17;;;;;;;-145.18;100.00;46660.41;4952638;29;20066;-84
2022/06/13 03:11:07;;;;;;;22.10;6.07;;;;;;;-145.18;100.00;46658.44;4952740;29;20503;-87
2022/06/13 03:13:41;;;;;;;19.43;6.73;;;;;;;-145.18;100.00;46660.41;4952408;29;20034;-85
2022/06/13 03:16:16;;;;;;;19.30;6.70;;;;;;;-145.18;100.00;46660.41;4952533;29;20502;-86
2022/06/13 03:18:48;;;;;;;15.07;6.97;;;;;;;-145.18;100.00;46660.41;4952849;29;20138;-85
2022/06/13 03:21:20;;;;;;;19.80;6.73;;;;;;;-145.18;100.00;46660.41;4953045;29;20027;-86
2022/06/13 03:23:50;;;;;;;16.97;5.80;;;;;;;-145.18;100.00;46660.41;4952313;29;20035;-87
2022/06/13 03:26:21;;;;;;;17.27;6.20;;;;;;;-145.18;100.00;46654.53;4952948;29;20027;-85
2022/06/13 03:28:56;;;;;;;15.43;5.50;;;;;;;-145.18;100.00;46656.50;4952535;29;20122;-87
2022/06/13 03:31:33;;;;;;;16.23;5.93;;;;;;;-145.18;100.00;46660.41;4953088;29;20023;-86
2022/06/13 03:34:05;;;;;;;25.47;8.03;;;;;;;-145.18;100.00;46656.50;4952128;29;20055;-86
2022/06/13 03:36:42;;;;;;;20.50;7.97;;;;;;;-145.18;100.00;46658.44;4952665;29;20047;-86
2022/06/13 03:39:32;;;;;;;19.80;7.03;;;;;;;-145.18;100.00;46656.50;4952209;29;20090;-87
2022/06/13 03:42:19;;;;;;;20.87;7.53;;;;;;;-145.18;100.00;46656.50;4951676;28;20035;-86
2022/06/13 03:45:06;;;;;;;27.40;8.23;;;;;;;-145.18;100.00;46654.53;4952354;29;20039;-84
2022/06/13 03:47:34;;;;;;;;;;;;;;;-145.18;100.00;46656.50;4952292;29;20415;-86
2022/06/13 03:50:11;;;;;;;18.70;4.97;;;;;;;-145.18;100.00;46660.41;4952193;29;19997;-85
2022/06/13 03:52:42;;;;;;;20.10;5.73;;;;;;;-145.18;100.00;46660.41;4952169;29;20046;-85
2022/06/13 03:55:17;;;;;;;19.57;5.47;;;;;;;-145.18;100.00;46660.41;4952375;29;20031;-85
2022/06/13 03:57:58;;;;;;;18.73;5.85;;;;;;;-145.18;100.00;46660.41;4951930;29;20031;-85
2022/06/13 04:00:29;;;;;;;21.83;5.17;;;;;;;-145.18;100.00;46660.41;4952359;29;20032;-86
2022/06/13 04:02:55;;;;;;;16.30;4.27;;;;;;;-145.18;100.00;46676.03;4959063;28;20043;-86
2022/06/13 04:05:36;;;;;;;23.50;4.80;;;;;;;-145.18;100.00;46660.41;4971532;28;20770;-85
2022/06/13 04:08:03;;;;;;;18.77;5.10;;;;;;;-145.18;100.00;46636.94;4970681;28;20482;-87
2022/06/13 04:10:40;;;;;;;25.20;4.93;;;;;;;-145.18;100.00;46640.88;4971591;28;20125;-85
2022/06/13 04:13:43;;;;;;;17.10;4.17;;;;;;;-145.18;100.00;46636.94;4970949;28;20505;-86
2022/06/13 04:16:19;;;;;;;14.93;4.57;;;;;;;-145.18;100.00;46646.72;4948892;28;20082;-86
2022/06/13 04:19:10;;;;;;;13.77;4.00;;;;;;;-145.18;100.00;46642.81;4950624;28;20446;-86
2022/06/13 04:21:59;;;;;;;12.83;3.57;;;;;;;-145.18;100.00;46648.69;4949581;29;20464;-86
2022/06/13 04:24:37;;;;;;;15.60;3.23;;;;;;;-145.18;100.00;46648.69;4949393;29;20023;-85
2022/06/13 04:27:16;;;;;;;13.10;3.90;;;;;;;-145.18;100.00;46650.63;4951594;29;20070;-85
2022/06/13 04:29:57;;;;;;;12.03;3.73;;;;;;;-145.18;100.00;46652.59;4950547;29;20027;-84
2022/06/13 04:32:28;;;;;;;14.77;3.90;;;;;;;-145.18;100.00;46656.50;4950285;29;20073;-86
2022/06/13 04:34:57;;;;;;;16.40;2.90;;;;;;;-145.18;100.00;46654.53;4949277;29;20031;-87
2022/06/13 04:37:23;;;;;;;18.13;4.23;;;;;;;-145.18;100.00;46652.59;4950015;28;20031;-87
2022/06/13 04:39:52;;;;;;;16.30;3.80;;;;;;;-145.18;100.00;46652.59;4940739;28;20123;-88
2022/06/13 04:42:21;;;;;;;12.83;3.50;;;;;;;-145.18;100.00;46654.53;4940589;29;20059;-86
2022/06/13 04:44:48;;;;;;;21.27;4.33;;;;;;;-145.18;100.00;46656.50;4943706;29;20047;-84
2022/06/13 04:47:16;;;;;;;12.07;3.73;;;;;;;-145.18;100.00;46656.50;4941763;29;20031;-85
2022/06/13 04:49:47;;;;;;;14.27;2.83;;;;;;;-145.18;100.00;46662.34;4945455;29;20028;-86
2022/06/13 04:52:18;;;;;;;17.70;3.67;;;;;;;-145.18;100.00;46658.44;4948097;28;20134;-85
2022/06/13 04:54:52;;;;;;;13.37;3.20;;;;;;;-145.18;100.00;46664.31;4955080;28;20031;-85
2022/06/13 04:57:18;;;;;;;12.33;3.33;;;;;;;-145.18;100.00;46656.50;4954597;29;20063;-85
2022/06/13 04:59:45;;;;;;;11.17;2.83;;;;;;;-145.18;100.00;46662.34;4962086;28;20031;-85
2022/06/13 05:02:15;;;;;;;13.67;3.10;;;;;;;-145.18;100.00;46666.25;4951609;28;20403;-86
2022/06/13 05:04:41;;;;;;;12.83;3.00;;;;;;;-145.18;100.00;46666.25;4991325;28;20510;-84
2022/06/13 05:07:17;;;;;;;15.63;3.70;;;;;;;-145.18;100.00;46666.25;4993835;28;20037;-84
2022/06/13 05:09:45;;;;;;;;;;;;;;;-145.18;100.00;46666.25;4994346;28;20029;-82
2022/06/13 05:12:13;;;;;;;13.10;3.43;;;;;;;-145.18;100.00;46664.31;4993982;28;19914;-85
2022/06/13 05:14:42;;;;;;;10.40;2.87;;;;;;;-145.18;100.00;46664.31;4990954;28;20088;-85
2022/06/13 05:17:32;;;;;;;18.47;3.50;;;;;;;-145.18;100.00;46666.25;4987541;28;20177;-84
2022/06/13 05:20:15;;;;;;;17.30;3.40;;;;;;;-145.18;100.00;46664.31;4969090;28;20074;-84
2022/06/13 05:22:47;;;;;;;14.80;3.27;;;;;;;-145.18;100.00;46666.25;4957153;28;20059;-85
2022/06/13 05:25:31;;;;;;;12.20;3.27;;;;;;;-145.18;100.00;46664.31;4972929;28;20118;-84
2022/06/13 05:27:56;;;;;;;18.13;3.00;;;;;;;-145.18;100.00;46660.41;4973271;28;20187;-83
2022/06/13 05:30:22;;;;;;;14.40;2.87;;;;;;;-145.18;100.00;46660.41;4974035;28;20067;-84
2022/06/13 05:32:48;;;;;;;14.00;2.70;;;;;;;-145.18;100.00;46656.50;4973586;28;20023;-84
2022/06/13 05:35:17;;;;;;;11.27;2.87;;;;;;;-145.18;100.00;46656.50;4973681;28;20564;-85
2022/06/13 05:37:43;;;;;;;18.13;3.53;;;;;;;-145.18;100.00;46658.44;4973331;28;20045;-85
2022/06/13 05:40:20;;;;;;;13.30;2.93;;;;;;;-145.18;100.00;46658.44;4973516;28;20027;-85
2022/06/13 05:42:46;;;;;;;9.20;2.80;;;;;;;-145.18;100.00;46656.50;4991381;28;20026;-85
2022/06/13 05:45:13;;;;;;;10.47;2.67;;;;;;;-145.18;100.00;46654.53;5000770;28;20439;-85
2022/06/13 05:47:40;;;;;;;16.33;2.77;;;;;;;-145.18;100.00;46652.59;4973607;28;20117;-84
2022/06/13 05:50:06;;;;;;;14.50;2.93;;;;;;;-145.18;100.00;46656.50;4973429;28;20446;-84
2022/06/13 05:52:31;;;;;;;10.20;2.80;;;;;;;-145.18;100.00;46660.41;4973629;28;20066;-85
2022/06/13 05:54:56;;;;;;;12.80;3.00;;;;;;;-145.18;100.00;46660.41;4973458;28;20522;-85
2022/06/13 05:57:22;;;;;;;11.93;2.97;;;;;;;-145.18;100.00;46660.41;4973814;28;20503;-86
2022/06/13 05:59:47;;;;;;;10.43;2.77;;;;;;;-145.18;100.00;46656.50;4972858;28;20561;-85
2022/06/13 06:02:12;;;;;;;13.83;2.87;;;;;;;-145.18;100.00;46658.44;4973398;28;20038;-84
2022/06/13 06:04:37;;;;;;;10.73;3.47;;;;;;;-145.18;100.00;46648.69;4952953;28;20055;-84
2022/06/13 06:07:04;;;;;;;14.30;2.70;;;;;;;-145.18;100.00;46633.06;4953690;29;20046;-84
2022/06/13 06:09:29;;;;;;;6.53;1.90;;;;;;;-145.18;100.00;46625.22;4952986;29;20443;-83
2022/06/13 06:11:54;;;;;;;9.53;2.40;;;;;;;-145.18;100.00;46601.78;4952149;29;20063;-84
2022/06/13 06:14:20;;;;;;;10.13;2.50;;;;;;;-145.18;100.00;46593.97;4937265;29;20063;-84
2022/06/13 06:16:45;;;;;;;10.80;2.07;;;;;;;-145.18;100.00;46595.94;4934612;29;20067;-85
2022/06/13 06:19:11;;;;;;;10.63;2.07;;;;;;;-145.18;100.00;46580.31;4945430;29;20031;-83
2022/06/13 06:21:36;;;;;;;9.47;2.60;;;;;;;-145.18;100.00;46595.94;4952000;29;20039;-85
2022/06/13 06:24:02;;;;;;;16.47;3.10;;;;;;;-145.18;100.00;46623.28;4953063;29;20144;-84
2022/06/13 06:26:27;;;;;;;12.13;2.87;;;;;;;-145.18;100.00;46574.44;4953751;29;20069;-84
2022/06/13 06:28:53;;;;;;;6.47;1.70;;;;;;;-145.18;100.00;46554.91;4953278;29;20204;-84
2022/06/13 06:31:19;;;;;;;7.07;1.87;;;;;;;-145.18;100.00;46539.28;4953701;29;20502;-83
2022/06/13 06:33:45;;;;;;;11.90;2.27;;;;;;;-145.18;100.00;46537.34;4952837;29;20047;-83
2022/06/13 06:36:14;;;;;;;10.40;1.90;;;;;;;-145.18;100.00;46547.09;4953001;29;20039;-83
2022/06/13 06:38:40;;;;;;;13.60;2.67;;;;;;;-145.18;100.00;46543.19;4953301;29;20041;-83
2022/06/13 06:41:05;;;;;;;9.93;2.33;;;;;;;-145.18;100.00;46543.19;4953566;29;20116;-82
2022/06/13 06:43:30;;;;;;;10.27;2.50;;;;;;;-145.18;100.00;46529.53;4953143;29;20077;-82
2022/06/13 06:45:56;;;;;;;7.90;2.57;;;;;;;-145.18;100.00;46531.47;4953036;29;20042;-83
2022/06/13 06:48:23;;;;;;;8.43;1.80;;;;;;;-145.18;100.00;46533.44;4952595;29;20771;-83
2022/06/13 06:50:49;;;;;;;4.90;1.43;;;;;;;-145.18;100.00;46535.38;4953226;29;20035;-82
2022/06/13 06:53:17;;;;;;;9.50;1.80;;;;;;;-145.18;100.00;46535.38;4953119;29;20110;-82
2022/06/13 07:01:13;;;;;;;4.93;1.17;;;;;;;-145.18;100.00;46529.53;4953073;29;20175;-82
2022/06/13 07:03:39;;;;;;;11.00;1.90;;;;;;;-145.18;100.00;46531.47;4954279;28;20055;-82
2022/06/13 07:06:07;;;;;;;10.83;1.73;;;;;;;-145.18;100.00;46529.53;4952753;29;20500;-82
2022/06/13 07:08:32;;;;;;;6.97;1.00;;;;;;;-145.18;100.00;46531.47;4952284;29;20114;-82
2022/06/13 07:13:47;;;;;;;13.77;2.53;;;;;;;-145.18;100.00;46545.16;4937897;29;20498;-82
2022/06/13 07:16:13;;;;;;;18.00;2.07;;;;;;;-145.18;100.00;46547.09;4952743;28;20126;-82
2022/06/13 07:18:41;;;;;;;7.50;1.10;;;;;;;-145.18;100.00;46549.06;4952446;29;20039;-83
2022/06/13 07:21:07;;;;;;;3.27;0.90;;;;;;;-145.18;100.00;46556.88;4952530;29;20074;-82
2022/06/13 07:23:33;;;;;;;3.80;0.93;;;;;;;-145.18;100.00;46547.09;4951827;29;20039;-82
2022/06/13 07:25:58;;;;;;;6.30;1.10;;;;;;;-145.18;100.00;46551.00;4952519;29;20035;-82
2022/06/13 07:28:24;;;;;;;8.43;1.20;;;;;;;-145.18;100.00;46554.91;4952253;29;20031;-82
2022/06/13 07:30:49;;;;;;;6.73;2.00;;;;;;;-145.18;100.00;46547.09;4952543;29;20039;-82
2022/06/13 07:33:15;;;;;;;7.97;2.13;;;;;;;-145.18;100.00;46554.91;4967158;28;20046;-82
2022/06/13 07:35:40;;;;;;;6.00;1.40;;;;;;;-145.18;100.00;46556.88;4952330;29;20043;-82
2022/06/13 07:38:18;;;;;;;5.70;1.10;;;;;;;-145.18;100.00;46556.88;4951900;29;20046;-81
2022/06/13 07:40:47;;;;;;;8.57;1.50;;;;;;;-145.18;100.00;46549.06;4952760;29;20160;-81
2022/06/13 07:43:33;;;;;;;13.60;1.70;;;;;;;-145.18;100.00;46562.72;4952482;29;20031;-82
2022/06/13 07:46:02;;;;;;;;;;;;;;;-145.18;100.00;46556.88;4952364;29;20058;-81
2022/06/13 07:48:28;;;;;;;8.33;1.50;;;;;;;-145.18;100.00;46551.00;4951620;29;20277;-82
2022/06/13 07:50:54;;;;;;;8.10;2.17;;;;;;;-145.18;100.00;46556.88;4952183;29;20042;-82
2022/06/13 07:53:20;;;;;;;6.73;1.40;;;;;;;-145.18;100.00;46554.91;4950062;29;20093;-81
2022/06/13 07:55:45;;;;;;;8.83;1.73;;;;;;;-145.18;100.00;46558.81;4951187;29;20031;-81
2022/06/13 07:58:25;;;;;;;11.93;1.67;;;;;;;-145.18;100.00;46562.72;4951660;29;20039;-81
2022/06/13 08:00:51;;;;;;;7.40;1.17;;;;;;;-145.18;100.00;46554.91;4952164;29;20167;-81
2022/06/13 08:03:26;;;;;;;8.83;1.20;;;;;;;-145.18;100.00;46547.09;4958143;28;20054;-82
2022/06/13 08:05:52;;;;;;;10.88;1.25;;;;;;;-145.18;100.00;46556.88;4971260;28;20034;-81
2022/06/13 08:08:18;;;;;;;5.10;0.90;;;;;;;-145.18;100.00;46570.53;4971172;28;20383;-81
2022/06/13 08:10:44;;;;;;;4.67;0.90;;;;;;;-145.18;100.00;46572.50;4971226;28;20442;-81
2022/06/13 08:13:15;;;;;;;14.40;1.60;;;;;;;-145.18;100.00;46588.13;4970786;28;20034;-81
2022/06/13 08:15:40;;;;;;;3.60;0.80;;;;;;;-145.18;100.00;46595.94;4971008;28;20122;-81
2022/06/13 08:18:06;;;;;;;5.73;1.13;;;;;;;-145.18;100.00;46609.59;4970878;28;20122;-81
2022/06/13 08:20:33;;;;;;;4.37;1.10;;;;;;;-145.18;100.00;46625.22;4970821;28;20069;-81
2022/06/13 08:23:00;;;;;;;6.00;0.80;;;;;;;-145.18;100.00;46627.19;4970773;28;20039;-82
2022/06/13 08:25:28;;;;;;;6.90;1.83;;;;;;;-145.18;100.00;46638.91;4971088;28;20050;-80
2022/06/13 08:27:59;;;;;;;3.00;0.70;;;;;;;-145.18;100.00;46715.09;4972622;28;20491;-81
2022/06/13 08:30:26;;;;;;;3.97;1.30;;;;;;;-145.18;100.00;46701.41;4974796;28;20387;-80
2022/06/13 08:32:52;;;;;;;7.77;0.67;;;;;;;-145.18;100.00;46674.06;4974824;28;20395;-80
2022/06/13 08:35:17;;;;;;;4.73;0.80;;;;;;;-145.18;100.00;46691.66;4974359;28;20047;-79
2022/06/13 08:37:42;;;;;;;6.23;1.00;;;;;;;-145.18;100.00;46674.06;4974823;28;20122;-80
2022/06/13 08:40:10;;;;;;;7.33;1.43;;;;;;;-145.18;100.00;46615.47;4974311;28;20063;-80
2022/06/13 08:43:07;;;;;;;7.63;1.13;;;;;;;-145.18;100.00;46654.53;4974712;28;20047;-80
2022/06/13 08:45:39;;;;;;;8.37;1.20;;;;;;;-145.18;100.00;46679.94;4939510;28;20403;-80
2022/06/13 08:48:08;;;;;;;3.67;1.07;;;;;;;-145.18;100.00;46648.69;4974361;28;20041;-80
2022/06/13 08:50:37;;;;;;;6.63;1.37;;;;;;;-145.18;100.00;46654.53;4974320;28;20027;-80
2022/06/13 08:53:12;;;;;;;8.10;1.03;;;;;;;-145.18;100.00;46617.41;4974052;28;20041;-79
2022/06/13 08:55:47;;;;;;;8.00;1.73;;;;;;;-145.18;100.00;46590.06;4974108;28;20039;-80
2022/06/13 08:58:34;;;;;;;5.87;1.57;;;;;;;-145.18;100.00;46601.78;4974524;28;20038;-81
2022/06/13 09:01:21;;;;;;;9.03;2.00;;;;;;;-145.18;100.00;46578.34;4974308;28;20069;-80
2022/06/13 09:03:58;;;;;;;7.90;1.57;;;;;;;-145.18;100.00;46572.50;4962848;28;20047;-80
2022/06/13 09:06:48;;;;;;;8.80;1.60;;;;;;;-145.18;100.00;46582.25;4955080;29;20114;-79
2022/06/13 09:09:26;;;;;;;5.60;1.30;;;;;;;-145.18;100.00;46593.97;4954647;29;20030;-79
2022/06/13 09:12:09;;;;;;;4.50;0.90;;;;;;;-145.18;100.00;46633.06;4952206;29;20059;-79
2022/06/13 09:14:42;;;;;;;6.77;1.03;;;;;;;-145.18;100.00;46648.69;4953505;29;20090;-80
2022/06/13 09:17:11;;;;;;;7.27;1.40;;;;;;;-145.18;100.00;46640.88;4954302;28;20039;-79
2022/06/13 09:20:03;;;;;;;4.33;1.20;;;;;;;-145.18;100.00;46865.50;4954379;29;20111;-79
2022/06/13 09:22:52;;;;;;;5.07;0.83;;;;;;;-145.18;100.00;46672.13;4935628;29;20087;-79
2022/06/13 09:25:35;;;;;;;2.73;1.00;;;;;;;-145.18;100.00;46648.69;4953338;29;20063;-79
2022/06/13 09:28:20;;;;;;;3.60;0.97;;;;;;;-145.18;100.00;46621.31;4954305;29;20031;-80
2022/06/13 09:30:58;;;;;;;4.03;0.70;;;;;;;-145.18;100.00;46814.72;4954747;29;20035;-80
2022/06/13 09:33:32;;;;;;;3.83;1.30;;;;;;;-145.18;100.00;47264.03;4954341;29;20364;-80
2022/06/13 09:36:11;;;;;;;6.53;2.50;;;;;;;-145.18;100.00;47295.28;4953808;29;20446;-79
2022/06/13 09:38:47;;;;;;;3.17;0.80;;;;;;;-145.18;100.00;47250.34;4952975;28;20591;-79
2022/06/13 09:41:31;;;;;;;2.78;0.80;;;;;;;-145.18;100.00;47180.03;4954595;29;20086;-80
2022/06/13 09:44:11;;;;;;;7.20;1.50;;;;;;;-145.18;100.00;47297.22;4953983;29;20051;-80
2022/06/13 09:46:55;;;;;;;4.80;0.90;;;;;;;-145.18;100.00;47320.69;4954227;29;20090;-80
2022/06/13 09:49:55;;;;;;;7.50;1.20;;;;;;;-145.18;100.00;47015.91;4953946;29;20487;-79
2022/06/13 09:52:32;;;;;;;9.07;1.30;;;;;;;-145.18;100.00;47221.03;4954184;29;20031;-81
2022/06/13 09:55:06;;;;;;;2.33;0.93;;;;;;;-145.18;100.00;47139.00;4953660;29;20384;-80
2022/06/13 09:57:43;;;;;;;3.23;1.03;;;;;;;-145.18;100.00;47203.47;4954347;29;20058;-80
2022/06/13 10:00:15;;;;;;;5.93;1.00;;;;;;;-145.18;100.00;47303.09;4953579;29;20042;-79
2022/06/13 10:02:49;;;;;;;3.50;1.00;;;;;;;-145.18;100.00;47326.53;4954025;28;20034;-79
2022/06/13 10:05:32;;;;;;;5.87;1.20;;;;;;;-145.18;100.00;46898.72;4953829;29;20074;-80
2022/06/13 10:08:09;;;;;;;3.33;1.23;;;;;;;-145.18;100.00;46738.53;4953833;29;20484;-80
2022/06/13 10:10:56;;;;;;;5.13;1.20;;;;;;;-145.18;100.00;46662.34;4951418;29;20027;-79
2022/06/13 10:13:53;;;;;;;6.27;1.30;;;;;;;-145.18;100.00;46664.31;4952717;29;20118;-80
2022/06/13 10:16:31;;;;;;;6.63;1.30;;;;;;;-145.18;100.00;46926.06;4952738;29;20043;-80
2022/06/13 10:19:30;;;;;;;3.30;1.13;;;;;;;-145.18;100.00;47230.81;4953278;29;20028;-79
2022/06/13 10:22:07;;;;;;;5.10;1.20;;;;;;;-145.18;100.00;47021.78;4953594;29;20054;-80
2022/06/13 10:24:58;;;;;;;8.03;1.90;;;;;;;-145.18;100.00;47199.56;4953303;29;20031;-80
2022/06/13 10:27:51;;;;;;;4.57;0.90;;;;;;;-145.18;100.00;47172.19;4952525;29;20050;-80
2022/06/13 10:30:54;;;;;;;5.50;1.53;;;;;;;-145.18;100.00;47185.88;4952810;29;20191;-79
2022/06/13 10:33:38;;;;;;;4.60;1.00;;;;;;;-145.18;100.00;46812.75;4953264;29;20487;-79
2022/06/13 10:36:03;;;;;;;5.97;1.50;;;;;;;-145.18;100.00;46719.00;4953084;29;20125;-79
2022/06/13 10:38:35;;;;;;;15.83;1.60;;;;;;;-145.18;100.00;46640.88;4953146;29;20063;-79
2022/06/13 10:41:01;;;;;;;5.50;1.27;;;;;;;-145.18;100.00;46617.41;4952647;29;20039;-79
2022/06/13 10:43:27;;;;;;;11.00;1.10;;;;;;;-145.18;100.00;46781.50;4952161;29;20062;-79
2022/06/13 10:45:52;;;;;;;4.50;1.50;;;;;;;-145.18;100.00;47250.34;4933740;29;20035;-78
2022/06/13 10:48:41;;;;;;;5.00;1.20;;;;;;;-145.18;100.00;47207.38;4933029;29;20062;-78
2022/06/13 10:51:20;;;;;;;6.87;1.13;;;;;;;-145.18;100.00;47219.09;4932909;29;20135;-78
2022/06/13 10:54:07;;;;;;;5.00;1.03;;;;;;;-145.18;100.00;47207.38;4933457;29;20028;-78
2022/06/13 10:56:41;;;;;;;14.60;1.20;;;;;;;-145.18;100.00;47176.09;4946180;29;20453;-78
2022/06/13 10:59:21;;;;;;;4.53;1.10;;;;;;;-145.18;100.00;47129.22;4933436;29;20550;-78
2022/06/13 11:02:02;;;;;;;1.90;0.77;;;;;;;-145.18;100.00;47211.28;4933609;29;20032;-78
2022/06/13 11:04:37;;;;;;;5.73;1.07;;;;;;;-145.18;100.00;47168.28;4932947;29;20086;-78
2022/06/13 11:07:11;;;;;;;2.40;0.70;;;;;;;-145.18;100.00;47133.13;4933723;29;20042;-78
2022/06/13 11:09:41;;;;;;;10.50;1.57;;;;;;;-145.18;100.00;47131.19;4944821;29;20035;-78
2022/06/13 11:12:37;;;;;;;5.97;1.00;;;;;;;-145.18;100.00;47113.59;4951249;28;20041;-78
2022/06/13 11:24:11;;;;;;;7.77;1.57;;;;;;;-145.18;100.00;47131.19;4930879;29;20043;-80
2022/06/13 11:29:24;;;;;;;8.57;1.10;;;;;;;-145.18;100.00;47240.56;4933069;29;20090;-78
2022/06/13 11:31:56;;;;;;;3.57;0.70;;;;;;;-145.18;100.00;47154.63;4933059;29;20039;-79
2022/06/13 11:34:38;;;;;;;8.27;1.53;;;;;;;-145.18;100.00;47125.31;4933067;29;20031;-79
2022/06/13 11:37:13;;;;;;;5.80;1.17;;;;;;;-145.18;100.00;47215.19;4933104;29;20044;-79
2022/06/13 11:39:41;;;;;;;8.90;1.20;;;;;;;-145.18;100.00;47230.81;4943724;29;20027;-79
2022/06/13 11:42:23;;;;;;;16.27;1.10;;;;;;;-145.18;100.00;47205.41;4950832;29;20367;-79
2022/06/13 11:44:54;;;;;;;5.13;1.10;;;;;;;-145.18;100.00;47127.28;4950428;29;20066;-80
2022/06/13 11:47:21;;;;;;;5.73;2.03;;;;;;;-145.18;100.00;47109.69;4951570;29;20067;-80
2022/06/13 11:49:52;;;;;;;2.53;0.90;;;;;;;-145.18;100.00;47185.88;4951280;29;20098;-79
2022/06/13 11:55:26;;;;;;;3.97;1.10;;;;;;;-145.18;100.00;47178.06;4951847;29;20127;-80
2022/06/13 11:57:56;;;;;;;4.77;0.83;;;;;;;-145.18;100.00;47195.66;4951301;29;20920;-81
2022/06/13 12:00:21;;;;;;;5.57;1.07;;;;;;;-145.18;100.00;47105.78;4949832;29;20030;-80